Time;durP1;ratioP1;P1;durP2;ratioP2;P2;SDS_P1;SDS_P2;PMS_P1;PMS_P2;Temp;Humidity;BMP_temperature;BMP_pressure;BME280_temperature;BME280_humidity;BME280_pressure;Samples;Min_cycle;Max_cycle;Signal;HPM_P1;HPM_P2
2021/11/13 00:00:26;;;;;;;;;34.00;30.25;;;;;-147.17;100.00;49899.16;5037576;28;51489;-65
2021/11/13 00:02:52;;;;;;;;;30.25;28.50;;;;;-147.17;100.00;49891.28;5051680;28;51123;-64
2021/11/13 00:05:18;;;;;;;;;32.00;31.00;;;;;-147.17;100.00;49914.91;5049571;28;51479;-64
2021/11/13 00:07:44;;;;;;;;;25.25;25.00;;;;;-147.17;100.00;49922.78;5041642;28;51143;-66
2021/11/13 00:10:12;;;;;;;;;26.50;26.50;;;;;-147.17;100.00;49926.69;5042083;28;51352;-64
2021/11/13 00:12:38;;;;;;;;;30.00;24.75;;;;;-147.17;100.00;49944.41;5048983;28;51269;-64
2021/11/13 00:15:07;;;;;;;;;27.00;23.75;;;;;-147.17;100.00;49897.19;5042319;28;52734;-62
2021/11/13 00:17:32;;;;;;;;;26.75;25.50;;;;;-147.17;100.00;49944.41;5042190;28;51974;-64
2021/11/13 00:19:58;;;;;;;;;30.75;28.25;;;;;-147.17;100.00;49940.47;5040339;28;51376;-65
2021/11/13 00:22:23;;;;;;;;;32.75;26.00;;;;;-147.17;100.00;49899.16;5047968;28;50968;-63
2021/11/13 00:24:49;;;;;;;;;25.75;25.00;;;;;-147.17;100.00;49920.81;5051548;28;51028;-62
2021/11/13 00:27:15;;;;;;;;;30.25;28.00;;;;;-147.17;100.00;49895.22;5049934;28;51338;-63
2021/11/13 00:29:40;;;;;;;;;31.50;27.00;;;;;-147.17;100.00;49910.97;5050620;28;51104;-63
2021/11/13 00:32:06;;;;;;;;;23.25;23.00;;;;;-147.17;100.00;49887.34;5047241;28;51243;-63
2021/11/13 00:34:32;;;;;;;;;29.75;27.00;;;;;-147.17;100.00;49910.97;5030064;28;52274;-61
2021/11/13 00:36:57;;;;;;;;;27.25;23.50;;;;;-147.17;100.00;49942.44;5047381;28;51334;-61
2021/11/13 00:39:24;;;;;;;;;30.00;26.00;;;;;-147.17;100.00;49924.72;5047977;28;50987;-62
2021/11/13 00:41:49;;;;;;;;;22.50;21.00;;;;;-147.17;100.00;49918.84;5036864;28;51288;-62
2021/11/13 00:44:15;;;;;;;;;22.50;22.50;;;;;-147.17;100.00;49938.50;5053317;28;52967;-62
2021/11/13 00:46:41;;;;;;;;;27.00;24.25;;;;;-147.17;100.00;49934.56;5045454;28;51089;-62
2021/11/13 00:49:07;;;;;;;;;21.75;21.75;;;;;-147.17;100.00;49964.09;5034741;28;51189;-63
2021/11/13 00:51:34;;;;;;;;;21.25;19.25;;;;;-147.17;100.00;49940.47;5051879;28;53280;-63
2021/11/13 00:54:00;;;;;;;;;26.25;23.00;;;;;-147.17;100.00;49958.19;5026520;28;53890;-63
2021/11/13 00:56:25;;;;;;;;;24.00;22.00;;;;;-147.17;100.00;49942.44;5045205;28;51036;-63
2021/11/13 00:58:50;;;;;;;;;23.50;23.00;;;;;-147.17;100.00;49942.44;5053683;28;50975;-63
2021/11/13 01:01:16;;;;;;;;;22.25;20.00;;;;;-147.17;100.00;49932.59;5052309;28;51103;-62
2021/11/13 01:03:44;;;;;;;;;22.00;22.00;;;;;-147.17;100.00;49946.38;5054430;28;52004;-63
2021/11/13 01:06:10;;;;;;;;;28.00;25.25;;;;;-147.17;100.00;49948.34;5052840;28;51237;-62
2021/11/13 01:08:36;;;;;;;;;23.25;22.00;;;;;-147.17;100.00;49944.41;5050202;28;51107;-62
2021/11/13 01:11:02;;;;;;;;;34.00;30.25;;;;;-147.17;100.00;49914.91;5048738;28;51362;-62
2021/11/13 01:13:28;;;;;;;;;22.75;21.00;;;;;-147.17;100.00;49944.41;5058113;28;52801;-62
2021/11/13 01:15:55;;;;;;;;;26.25;24.50;;;;;-147.17;100.00;49962.13;5047326;28;51011;-62
2021/11/13 01:18:20;;;;;;;;;27.75;25.50;;;;;-147.17;100.00;49932.59;5046541;28;51170;-62
2021/11/13 01:20:46;;;;;;;;;25.50;24.25;;;;;-147.17;100.00;49950.31;5045748;28;51165;-62
2021/11/13 01:23:11;;;;;;;;;26.75;26.25;;;;;-147.17;100.00;49912.94;5037794;28;50979;-61
2021/11/13 01:25:37;;;;;;;;;26.75;24.50;;;;;-147.17;100.00;49944.41;5050272;28;50911;-62
2021/11/13 01:28:02;;;;;;;;;31.50;25.00;;;;;-147.17;100.00;49942.44;5049563;28;51411;-62
2021/11/13 01:30:28;;;;;;;;;24.50;22.50;;;;;-147.17;100.00;49942.44;5050972;28;51296;-61
2021/11/13 01:32:53;;;;;;;;;24.00;22.75;;;;;-147.17;100.00;49899.16;5019967;28;51233;-61
2021/11/13 01:35:22;;;;;;;;;25.25;23.75;;;;;-147.17;100.00;49960.16;5053703;28;51082;-61
2021/11/13 01:37:48;;;;;;;;;21.50;20.00;;;;;-147.17;100.00;49914.91;5051793;28;51113;-62
2021/11/13 01:40:16;;;;;;;;;25.50;23.50;;;;;-147.17;100.00;49912.94;5049525;28;51109;-62
2021/11/13 01:42:43;;;;;;;;;22.00;21.50;;;;;-147.17;100.00;49901.13;5018488;28;52479;-62
2021/11/13 01:45:11;;;;;;;;;23.50;20.50;;;;;-147.17;100.00;49879.47;5035850;28;51227;-63
2021/11/13 01:47:38;;;;;;;;;20.75;18.25;;;;;-147.17;100.00;49887.34;5053294;28;51062;-61
2021/11/13 01:50:19;;;;;;;;;21.25;19.25;;;;;-147.17;100.00;49897.19;5042981;28;50980;-61
2021/11/13 01:52:46;;;;;;;;;22.25;20.75;;;;;-147.17;100.00;49877.50;5039365;28;51209;-67
2021/11/13 01:55:13;;;;;;;;;22.25;20.00;;;;;-147.17;100.00;49873.56;5051706;28;51308;-65
2021/11/13 01:57:46;;;;;;;;;16.50;16.25;;;;;-147.17;100.00;49916.88;5051979;28;51099;-66
2021/11/13 02:00:17;;;;;;;;;22.25;19.50;;;;;-147.17;100.00;49912.94;5038947;28;51151;-67
2021/11/13 02:02:43;;;;;;;;;25.00;22.00;;;;;-147.17;100.00;49869.63;5015596;28;51863;-65
2021/11/13 02:05:09;;;;;;;;;23.25;22.25;;;;;-147.17;100.00;49903.09;5045089;28;51030;-66
2021/11/13 02:07:35;;;;;;;;;19.00;17.75;;;;;-147.17;100.00;49899.16;5036290;28;51121;-66
2021/11/13 02:10:02;;;;;;;;;19.00;18.25;;;;;-147.17;100.00;49920.81;5053393;28;50938;-67
2021/11/13 02:12:29;;;;;;;;;21.00;20.50;;;;;-147.17;100.00;49899.16;5052808;28;52919;-67
2021/11/13 02:14:54;;;;;;;;;24.75;20.00;;;;;-147.17;100.00;49881.44;5050640;28;51161;-66
2021/11/13 02:17:20;;;;;;;;;24.00;23.00;;;;;-147.17;100.00;49859.78;5046204;28;50865;-66
2021/11/13 02:19:48;;;;;;;;;21.75;21.00;;;;;-147.17;100.00;49895.22;5053419;28;51312;-66
2021/11/13 02:22:13;;;;;;;;;24.00;21.25;;;;;-147.17;100.00;49875.53;5052265;28;51063;-66
2021/11/13 02:24:44;;;;;;;;;19.75;18.75;;;;;-147.17;100.00;49899.16;5052460;28;51102;-66
2021/11/13 02:27:09;;;;;;;;;20.75;18.25;;;;;-147.17;100.00;49863.72;5046812;28;51168;-67
2021/11/13 02:29:36;;;;;;;;;21.50;19.00;;;;;-147.17;100.00;49875.53;5052498;28;51365;-66
2021/11/13 02:32:01;;;;;;;;;22.50;21.00;;;;;-147.17;100.00;49879.47;5052898;28;52011;-66
2021/11/13 02:34:27;;;;;;;;;21.25;19.50;;;;;-147.17;100.00;49863.72;5052957;28;51265;-66
2021/11/13 02:36:52;;;;;;;;;18.50;17.25;;;;;-147.17;100.00;49861.75;5052506;28;50897;-66
2021/11/13 02:39:18;;;;;;;;;18.33;16.00;;;;;-147.17;100.00;49881.44;5049386;28;51354;-66
2021/11/13 02:41:44;;;;;;;;;20.00;16.50;;;;;-147.17;100.00;49851.91;5040461;28;53204;-66
2021/11/13 02:44:11;;;;;;;;;16.00;14.75;;;;;-147.17;100.00;49859.78;5031379;28;51127;-66
2021/11/13 02:46:37;;;;;;;;;16.25;15.00;;;;;-147.17;100.00;49879.47;5047886;28;51187;-67
2021/11/13 02:49:04;;;;;;;;;20.50;16.75;;;;;-147.17;100.00;49844.03;5052072;28;50840;-66
2021/11/13 02:51:29;;;;;;;;;19.75;17.00;;;;;-147.17;100.00;49857.81;5052136;28;52609;-65
2021/11/13 02:53:55;;;;;;;;;20.25;19.75;;;;;-147.17;100.00;49875.53;5042414;28;51018;-68
2021/11/13 02:56:20;;;;;;;;;18.50;15.25;;;;;-147.17;100.00;49869.63;5052068;28;51975;-65
2021/11/13 02:58:46;;;;;;;;;17.50;16.75;;;;;-147.17;100.00;49867.66;5050090;28;51241;-67
2021/11/13 03:01:15;;;;;;;;;16.50;14.25;;;;;-147.17;100.00;49875.53;5031868;28;52229;-66
2021/11/13 03:03:41;;;;;;;;;20.50;16.25;;;;;-147.17;100.00;49903.09;5038102;28;51107;-66
2021/11/13 03:06:12;;;;;;;;;21.25;17.50;;;;;-147.17;100.00;49863.72;5051919;28;51029;-66
2021/11/13 03:08:39;;;;;;;;;18.25;15.00;;;;;-147.17;100.00;49891.28;5047837;28;51230;-66
2021/11/13 03:11:11;;;;;;;;;16.75;15.25;;;;;-147.17;100.00;49887.34;5032032;28;51106;-65
2021/11/13 03:13:38;;;;;;;;;13.75;13.00;;;;;-147.17;100.00;49887.34;5040275;28;51018;-65
2021/11/13 03:16:05;;;;;;;;;14.75;14.50;;;;;-147.17;100.00;49881.44;5048002;28;51831;-65
2021/11/13 03:18:31;;;;;;;;;17.00;16.00;;;;;-147.17;100.00;49879.47;5052710;28;51061;-65
2021/11/13 03:20:57;;;;;;;;;19.00;15.50;;;;;-147.17;100.00;49914.91;5050521;28;52350;-65
2021/11/13 03:23:24;;;;;;;;;20.25;18.25;;;;;-147.17;100.00;49912.94;5052135;28;51123;-66
2021/11/13 03:26:14;;;;;;;;;19.00;17.00;;;;;-147.17;100.00;49873.56;5049507;28;50918;-66
2021/11/13 03:28:43;;;;;;;;;17.25;15.25;;;;;-147.17;100.00;49851.91;5048855;28;51144;-66
2021/11/13 03:31:09;;;;;;;;;15.75;13.50;;;;;-147.17;100.00;49869.63;5044109;28;52323;-66
2021/11/13 03:33:37;;;;;;;;;17.75;15.75;;;;;-147.17;100.00;49846.00;5049364;28;51149;-66
2021/11/13 03:36:05;;;;;;;;;16.50;15.75;;;;;-147.17;100.00;49879.47;5039518;28;51167;-66
2021/11/13 03:38:31;;;;;;;;;16.00;13.00;;;;;-147.17;100.00;49859.78;5050502;28;51249;-66
2021/11/13 03:40:57;;;;;;;;;12.00;11.00;;;;;-147.17;100.00;49865.69;5055421;28;51256;-66
2021/11/13 03:43:22;;;;;;;;;16.25;13.25;;;;;-147.17;100.00;49851.91;5055087;28;51061;-66
2021/11/13 03:45:50;;;;;;;;;14.33;11.33;;;;;-147.17;100.00;49875.53;5039994;28;50929;-66
2021/11/13 03:48:16;;;;;;;;;11.75;11.50;;;;;-147.17;100.00;49844.03;5036365;28;51202;-66
2021/11/13 03:50:41;;;;;;;;;11.33;8.00;;;;;-147.17;100.00;49810.56;5039335;28;52856;-66
2021/11/13 03:53:07;;;;;;;;;10.67;10.67;;;;;-147.17;100.00;49834.19;5035168;28;51090;-66
2021/11/13 03:55:34;;;;;;;;;12.67;11.67;;;;;-147.17;100.00;49836.16;5052892;28;51180;-66
2021/11/13 03:58:00;;;;;;;;;14.00;13.00;;;;;-147.17;100.00;49873.56;5054544;28;51018;-66
2021/11/13 04:00:27;;;;;;;;;12.00;10.67;;;;;-147.17;100.00;49832.22;5053718;28;53237;-66
2021/11/13 04:02:53;;;;;;;;;10.67;9.00;;;;;-147.17;100.00;49828.28;5045248;28;50852;-66
2021/11/13 04:05:20;;;;;;;;;8.67;8.00;;;;;-147.17;100.00;49832.22;5052022;28;51120;-65
2021/11/13 04:07:46;;;;;;;;;12.33;10.67;;;;;-147.17;100.00;49836.16;5055733;28;50930;-65
2021/11/13 04:10:14;;;;;;;;;10.00;10.00;;;;;-147.17;100.00;49840.09;5054182;28;51266;-67
2021/11/13 04:12:39;;;;;;;;;7.67;7.33;;;;;-147.17;100.00;49820.41;5053529;28;51218;-67
2021/11/13 04:15:06;;;;;;;;;10.67;9.00;;;;;-147.17;100.00;49842.06;5052404;28;51060;-66
2021/11/13 04:17:32;;;;;;;;;9.00;8.67;;;;;-147.17;100.00;49824.34;5054702;28;51213;-66
2021/11/13 04:19:57;;;;;;;;;9.67;7.00;;;;;-147.17;100.00;49828.28;5054970;28;52128;-66
2021/11/13 04:22:23;;;;;;;;;7.00;6.00;;;;;-147.17;100.00;49828.28;5055137;28;51022;-65
2021/11/13 04:24:48;;;;;;;;;8.00;7.00;;;;;-147.17;100.00;49820.41;5054272;28;51410;-66
2021/11/13 04:27:17;;;;;;;;;9.33;7.00;;;;;-147.17;100.00;49846.00;5054326;28;52451;-65
2021/11/13 04:29:43;;;;;;;;;8.00;7.00;;;;;-147.17;100.00;49816.47;5051016;28;51877;-65
2021/11/13 04:32:09;;;;;;;;;10.00;7.67;;;;;-147.17;100.00;49851.91;5042127;28;50925;-65
2021/11/13 04:37:27;;;;;;;;;5.00;5.00;;;;;-147.17;100.00;49871.59;5024529;28;51180;-65
2021/11/13 04:39:53;;;;;;;;;11.00;10.00;;;;;-147.17;100.00;49808.59;5035204;28;51882;-66
2021/11/13 04:42:20;;;;;;;;;6.67;6.33;;;;;-147.17;100.00;49834.19;5048603;28;51069;-65
2021/11/13 04:44:47;;;;;;;;;8.33;8.00;;;;;-147.17;100.00;49867.66;5054558;28;51342;-67
2021/11/13 04:47:13;;;;;;;;;11.00;8.33;;;;;-147.17;100.00;49855.84;5040564;28;51184;-65
2021/11/13 04:49:38;;;;;;;;;8.67;8.67;;;;;-147.17;100.00;49828.28;5038294;28;51031;-67
2021/11/13 04:52:05;;;;;;;;;6.67;6.00;;;;;-147.17;100.00;49822.38;5054251;28;51038;-65
2021/11/13 04:54:31;;;;;;;;;12.00;10.00;;;;;-147.17;100.00;49788.91;5045606;28;51838;-66
2021/11/13 04:56:57;;;;;;;;;8.33;7.00;;;;;-147.17;100.00;49816.47;5052203;28;51012;-67
2021/11/13 04:59:23;;;;;;;;;8.33;6.33;;;;;-147.17;100.00;49832.22;5054799;28;51714;-66
2021/11/13 05:01:48;;;;;;;;;6.67;5.00;;;;;-147.17;100.00;49816.47;5053523;28;51220;-67
2021/11/13 05:04:14;;;;;;;;;8.33;7.00;;;;;-147.17;100.00;49784.97;5051579;28;51297;-67
2021/11/13 05:06:39;;;;;;;;;7.00;7.00;;;;;-147.17;100.00;49794.81;5051765;28;51394;-66
2021/11/13 05:09:04;;;;;;;;;8.00;6.67;;;;;-147.17;100.00;49786.94;5034303;28;53279;-66
2021/11/13 05:11:30;;;;;;;;;11.00;9.33;;;;;-147.17;100.00;49806.63;5052813;28;51067;-66
2021/11/13 05:13:55;;;;;;;;;11.00;6.00;;;;;-147.17;100.00;49779.09;5054393;28;50966;-67
2021/11/13 05:16:21;;;;;;;;;10.33;9.67;;;;;-147.17;100.00;49802.69;5053143;28;51137;-67
2021/11/13 05:18:46;;;;;;;;;5.33;5.00;;;;;-147.17;100.00;49781.06;5054133;28;51141;-66
2021/11/13 05:21:12;;;;;;;;;6.00;5.33;;;;;-147.17;100.00;49761.38;5053164;28;51159;-66
2021/11/13 05:23:39;;;;;;;;;5.00;5.00;;;;;-147.17;100.00;49800.72;5033132;28;50959;-66
2021/11/13 05:26:05;;;;;;;;;4.67;4.67;;;;;-147.17;100.00;49769.25;5035732;28;50966;-66
2021/11/13 05:28:31;;;;;;;;;7.00;6.67;;;;;-147.17;100.00;49761.38;5052309;28;52260;-66
2021/11/13 05:30:57;;;;;;;;;6.00;5.67;;;;;-147.17;100.00;49796.78;5039576;28;51352;-67
2021/11/13 05:33:27;;;;;;;;;6.00;6.00;;;;;-147.17;100.00;49812.53;5032744;28;50975;-67
2021/11/13 05:35:57;;;;;;;;;8.00;7.00;;;;;-147.17;100.00;49796.78;5042109;28;51306;-66
2021/11/13 05:38:22;;;;;;;;;6.33;5.67;;;;;-147.17;100.00;49796.78;5053655;28;51968;-66
2021/11/13 05:40:48;;;;;;;;;5.00;4.00;;;;;-147.17;100.00;49812.53;5038825;28;51258;-66
2021/11/13 05:43:13;;;;;;;;;5.00;4.33;;;;;-147.17;100.00;49802.69;5034137;28;51172;-66
2021/11/13 05:45:39;;;;;;;;;8.33;7.00;;;;;-147.17;100.00;49800.72;5046655;28;51279;-66
2021/11/13 05:48:05;;;;;;;;;5.00;4.67;;;;;-147.17;100.00;49802.69;5033868;28;51228;-66
2021/11/13 05:50:30;;;;;;;;;7.33;5.33;;;;;-147.17;100.00;49816.47;5037656;28;51186;-66
2021/11/13 05:52:56;;;;;;;;;7.33;4.67;;;;;-147.17;100.00;49810.56;5041478;28;51023;-66
2021/11/13 05:55:24;;;;;;;;;5.00;5.00;;;;;-147.17;100.00;49806.63;5050294;28;51510;-66
2021/11/13 05:57:51;;;;;;;;;6.00;5.33;;;;;-147.17;100.00;49800.72;5031228;28;52107;-66
2021/11/13 06:00:19;;;;;;;;;5.33;5.33;;;;;-147.17;100.00;49816.47;5033646;28;51270;-66
2021/11/13 06:02:45;;;;;;;;;3.67;3.67;;;;;-147.17;100.00;49814.50;5050414;28;51069;-66
2021/11/13 06:05:11;;;;;;;;;6.00;5.00;;;;;-147.17;100.00;49794.81;5039750;28;51211;-67
2021/11/13 06:07:37;;;;;;;;;3.00;3.00;;;;;-147.17;100.00;49798.75;5052622;28;52030;-66
2021/11/13 06:10:04;;;;;;;;;3.00;3.00;;;;;-147.17;100.00;49781.06;5050733;28;51170;-66
2021/11/13 06:12:30;;;;;;;;;3.00;1.67;;;;;-147.17;100.00;49810.56;5033778;28;50968;-65
2021/11/13 06:14:55;;;;;;;;;5.00;4.00;;;;;-147.17;100.00;49826.31;5048161;28;50872;-66
2021/11/13 06:17:20;;;;;;;;;4.00;3.00;;;;;-147.17;100.00;49820.41;5042586;28;52990;-66
2021/11/13 06:19:46;;;;;;;;;3.00;3.00;;;;;-147.17;100.00;49822.38;5045385;28;50975;-66
2021/11/13 06:22:11;;;;;;;;;2.00;2.00;;;;;-147.17;100.00;49808.59;5051128;28;51062;-66
2021/11/13 06:24:37;;;;;;;;;4.00;3.00;;;;;-147.17;100.00;49808.59;5052569;28;51014;-66
2021/11/13 06:27:02;;;;;;;;;2.67;2.67;;;;;-147.17;100.00;49796.78;5050476;28;52416;-66
2021/11/13 06:29:28;;;;;;;;;3.00;2.67;;;;;-147.17;100.00;49798.75;5043178;28;51637;-66
2021/11/13 06:31:53;;;;;;;;;5.67;5.67;;;;;-147.17;100.00;49798.75;5045862;28;51396;-66
2021/11/13 06:34:19;;;;;;;;;5.00;3.33;;;;;-147.17;100.00;49800.72;5046710;28;50988;-66
2021/11/13 06:36:44;;;;;;;;;2.33;2.00;;;;;-147.17;100.00;49794.81;5052003;28;51699;-66
2021/11/13 06:39:10;;;;;;;;;3.33;3.00;;;;;-147.17;100.00;49818.44;5051601;28;51026;-66
2021/11/13 06:41:35;;;;;;;;;2.00;2.00;;;;;-147.17;100.00;49808.59;5033160;28;50970;-66
2021/11/13 06:44:01;;;;;;;;;2.67;2.00;;;;;-147.17;100.00;49765.31;5033225;28;51081;-66
2021/11/13 06:46:27;;;;;;;;;3.00;2.00;;;;;-147.17;100.00;49820.41;5035717;28;51708;-66
2021/11/13 06:48:52;;;;;;;;;2.00;1.67;;;;;-147.17;100.00;49804.66;5032750;28;51100;-66
2021/11/13 06:51:20;;;;;;;;;2.67;2.00;;;;;-147.17;100.00;49784.97;5041222;28;51090;-66
2021/11/13 06:53:45;;;;;;;;;2.33;2.00;;;;;-147.17;100.00;49747.59;5038885;28;51292;-65
2021/11/13 06:56:11;;;;;;;;;4.00;2.00;;;;;-147.17;100.00;49745.63;5040982;28;51941;-66
2021/11/13 06:58:36;;;;;;;;;2.00;2.00;;;;;-147.17;100.00;49737.75;5052795;28;51110;-66
2021/11/13 07:01:02;;;;;;;;;1.33;1.00;;;;;-147.17;100.00;49767.28;5051687;28;51049;-66
2021/11/13 07:03:27;;;;;;;;;3.00;2.33;;;;;-147.17;100.00;49729.88;5047222;28;52361;-66
2021/11/13 07:05:53;;;;;;;;;0.67;0.00;;;;;-147.17;100.00;49753.50;5036534;28;52790;-67
2021/11/13 07:08:18;;;;;;;;;1.67;1.00;;;;;-147.17;100.00;49773.19;5050954;28;51268;-66
2021/11/13 07:10:43;;;;;;;;;2.00;1.00;;;;;-147.17;100.00;49696.41;5043643;28;51079;-66
2021/11/13 07:13:09;;;;;;;;;4.00;3.67;;;;;-147.17;100.00;49668.84;5054613;28;51116;-66
2021/11/13 07:15:34;;;;;;;;;6.33;4.00;;;;;-147.17;100.00;49692.47;5057136;28;53169;-66
2021/11/13 07:18:02;;;;;;;;;3.00;3.00;;;;;-147.17;100.00;49753.50;5058099;28;51044;-66
2021/11/13 07:20:28;;;;;;;;;4.00;3.00;;;;;-147.17;100.00;49733.81;5058662;28;51290;-66
2021/11/13 07:22:54;;;;;;;;;4.00;3.00;;;;;-147.17;100.00;49765.31;5059510;28;51160;-66
2021/11/13 07:25:19;;;;;;;;;3.00;3.00;;;;;-147.17;100.00;49733.81;5056851;28;51202;-66
2021/11/13 07:27:47;;;;;;;;;3.00;2.00;;;;;-147.17;100.00;49725.94;5058205;28;50955;-66
2021/11/13 07:30:19;;;;;;;;;2.00;1.00;;;;;-147.17;100.00;49725.94;5058980;28;51036;-67
2021/11/13 07:32:46;;;;;;;;;2.00;2.00;;;;;-147.17;100.00;49714.13;5047221;28;51375;-66
2021/11/13 07:35:11;;;;;;;;;2.33;2.00;;;;;-147.17;100.00;49722.00;5051398;28;51826;-66
2021/11/13 07:37:37;;;;;;;;;2.67;2.00;;;;;-147.17;100.00;49714.13;5047545;28;51205;-66
2021/11/13 07:40:03;;;;;;;;;1.00;1.00;;;;;-147.17;100.00;49733.81;5043314;28;51078;-66
2021/11/13 07:42:31;;;;;;;;;2.00;1.67;;;;;-147.17;100.00;49718.06;5050151;28;51300;-66
2021/11/13 07:44:57;;;;;;;;;2.00;1.33;;;;;-147.17;100.00;49712.16;5058284;28;52455;-66
2021/11/13 07:47:23;;;;;;;;;1.67;1.67;;;;;-147.17;100.00;49702.31;5047125;28;50916;-65
2021/11/13 07:49:49;;;;;;;;;1.00;1.00;;;;;-147.17;100.00;49727.91;5038804;28;51035;-65
2021/11/13 07:52:14;;;;;;;;;2.00;1.67;;;;;-147.17;100.00;49733.81;5041227;28;51445;-65
2021/11/13 07:54:40;;;;;;;;;1.00;1.00;;;;;-147.17;100.00;49731.84;5058053;28;50966;-66
2021/11/13 07:57:08;;;;;;;;;1.00;1.00;;;;;-147.17;100.00;49743.66;5057228;28;52254;-65
2021/11/13 07:59:33;;;;;;;;;1.67;1.67;;;;;-147.17;100.00;49696.41;5040735;28;51141;-65
2021/11/13 08:01:59;;;;;;;;;1.00;1.00;;;;;-147.17;100.00;49698.38;5053032;28;51042;-66
2021/11/13 08:04:24;;;;;;;;;1.00;1.00;;;;;-147.17;100.00;49702.31;5055339;28;52413;-65
2021/11/13 08:06:49;;;;;;;;;2.33;2.00;;;;;-147.17;100.00;49678.69;5058065;28;51046;-65
2021/11/13 08:09:15;;;;;;;;;1.67;1.00;;;;;-147.17;100.00;49723.97;5057487;28;51026;-65
2021/11/13 08:11:40;;;;;;;;;1.33;1.33;;;;;-147.17;100.00;49694.44;5057794;28;51331;-66
2021/11/13 08:14:06;;;;;;;;;3.67;3.00;;;;;-147.17;100.00;49678.69;5048709;28;51859;-65
2021/11/13 08:16:31;;;;;;;;;2.00;2.00;;;;;-147.17;100.00;49666.88;5050156;28;51031;-65
2021/11/13 08:18:57;;;;;;;;;2.00;2.00;;;;;-147.17;100.00;49674.75;5047800;28;51194;-65
2021/11/13 08:21:23;;;;;;;;;5.67;4.67;;;;;-147.17;100.00;49672.78;5035226;28;51109;-65
2021/11/13 08:23:48;;;;;;;;;4.00;3.00;;;;;-147.17;100.00;49664.91;5037211;28;53375;-65
2021/11/13 08:26:14;;;;;;;;;2.67;2.67;;;;;-147.17;100.00;49692.47;5038976;28;50943;-65
2021/11/13 08:28:39;;;;;;;;;2.33;1.00;;;;;-147.17;100.00;49714.13;5051575;28;51331;-65
2021/11/13 08:31:05;;;;;;;;;2.00;2.00;;;;;-147.17;100.00;49690.50;5043562;28;51015;-65
2021/11/13 08:33:31;;;;;;;;;2.00;2.00;;;;;-147.17;100.00;49688.53;5045352;28;51859;-65
2021/11/13 08:35:57;;;;;;;;;2.00;1.67;;;;;-147.17;100.00;49696.41;5053813;28;50945;-65
2021/11/13 08:38:23;;;;;;;;;1.67;1.00;;;;;-147.17;100.00;49708.22;5053338;28;51197;-66
2021/11/13 08:40:50;;;;;;;;;4.00;2.67;;;;;-147.17;100.00;49710.19;5041469;28;51206;-66
2021/11/13 08:43:18;;;;;;;;;3.33;3.33;;;;;-147.17;100.00;49716.09;5047795;28;51967;-66
2021/11/13 08:45:44;;;;;;;;;3.00;3.00;;;;;-147.17;100.00;49720.03;5042023;28;51022;-66
2021/11/13 08:48:10;;;;;;;;;2.67;2.33;;;;;-147.17;100.00;49710.19;5039353;28;51141;-66
2021/11/13 08:50:36;;;;;;;;;5.33;4.00;;;;;-147.17;100.00;49700.34;5050824;28;51213;-68
2021/11/13 08:53:03;;;;;;;;;2.00;2.00;;;;;-147.17;100.00;49714.13;5053075;28;51950;-66
2021/11/13 08:55:31;;;;;;;;;1.00;1.00;;;;;-147.17;100.00;49696.41;5052636;28;51187;-66
2021/11/13 08:57:57;;;;;;;;;3.33;3.33;;;;;-147.17;100.00;49706.25;5051732;28;51128;-66
2021/11/13 09:00:28;;;;;;;;;3.00;3.00;;;;;-147.17;100.00;49720.03;5049294;28;51022;-67
2021/11/13 09:02:56;;;;;;;;;4.00;3.00;;;;;-147.17;100.00;49704.28;5055145;28;51692;-66
2021/11/13 09:05:23;;;;;;;;;3.33;3.33;;;;;-147.17;100.00;49710.19;5055637;28;51160;-66
2021/11/13 09:07:49;;;;;;;;;4.00;4.00;;;;;-147.17;100.00;49714.13;5042132;28;51090;-67
2021/11/13 09:10:16;;;;;;;;;3.00;3.00;;;;;-147.17;100.00;49733.81;5049397;28;51399;-67
2021/11/13 09:12:42;;;;;;;;;3.67;3.67;;;;;-147.17;100.00;49729.88;5039859;28;54154;-67
2021/11/13 09:15:13;;;;;;;;;2.67;2.67;;;;;-147.17;100.00;49733.81;5034351;28;51335;-67
2021/11/13 09:17:39;;;;;;;;;3.00;3.00;;;;;-147.17;100.00;49745.63;5044561;28;51699;-66
2021/11/13 09:20:07;;;;;;;;;2.00;2.00;;;;;-147.17;100.00;49729.88;5043373;28;50900;-66
2021/11/13 09:22:33;;;;;;;;;3.33;3.00;;;;;-147.17;100.00;49722.00;5022311;28;52007;-66
2021/11/13 09:24:58;;;;;;;;;3.00;2.33;;;;;-147.17;100.00;49773.19;5043244;28;51159;-66
2021/11/13 09:27:24;;;;;;;;;3.33;3.33;;;;;-147.17;100.00;49729.88;5046891;28;51132;-66
2021/11/13 09:29:50;;;;;;;;;2.33;2.00;;;;;-147.17;100.00;49743.66;5052984;27;51262;-66
2021/11/13 09:32:16;;;;;;;;;2.00;2.00;;;;;-147.17;100.00;49753.50;5033861;28;51224;-65
2021/11/13 09:34:41;;;;;;;;;3.00;2.00;;;;;-147.17;100.00;49706.25;5037088;28;51085;-66
2021/11/13 09:37:07;;;;;;;;;3.00;3.00;;;;;-147.17;100.00;49735.78;5051496;28;50990;-66
2021/11/13 09:39:34;;;;;;;;;3.67;3.00;;;;;-147.17;100.00;49704.28;5039610;28;51407;-65
2021/11/13 09:42:02;;;;;;;;;5.00;4.00;;;;;-147.17;100.00;49765.31;5033084;28;51129;-66
2021/11/13 09:44:27;;;;;;;;;5.00;4.33;;;;;-147.17;100.00;49741.69;5033785;28;51129;-65
2021/11/13 09:46:59;;;;;;;;;7.00;6.00;;;;;-147.17;100.00;49700.34;5032339;28;51206;-65
2021/11/13 09:49:27;;;;;;;;;5.00;5.00;;;;;-147.17;100.00;49722.00;5032350;28;51180;-66
2021/11/13 09:51:53;;;;;;;;;4.33;4.33;;;;;-147.17;100.00;49692.47;5047810;28;51811;-66
2021/11/13 09:54:19;;;;;;;;;3.00;3.00;;;;;-147.17;100.00;49698.38;5052288;28;51300;-63
2021/11/13 09:56:45;;;;;;;;;3.33;3.33;;;;;-147.17;100.00;49674.75;5039755;28;51280;-64
2021/11/13 09:59:10;;;;;;;;;4.00;4.00;;;;;-147.17;100.00;49657.06;5040689;28;51364;-64
2021/11/13 10:01:36;;;;;;;;;6.00;6.00;;;;;-147.17;100.00;49668.84;5050743;28;51871;-64
2021/11/13 10:04:02;;;;;;;;;5.67;5.33;;;;;-147.17;100.00;49678.69;5050386;28;51185;-64
2021/11/13 10:06:28;;;;;;;;;5.33;5.33;;;;;-147.17;100.00;49716.09;5047229;27;51295;-65
2021/11/13 10:08:53;;;;;;;;;5.33;5.33;;;;;-147.17;100.00;49700.34;5053214;28;50915;-64
2021/11/13 10:11:25;;;;;;;;;5.00;5.00;;;;;-147.17;100.00;49702.31;5057282;28;52478;-64
2021/11/13 10:13:53;;;;;;;;;4.00;4.00;;;;;-147.17;100.00;49749.56;5053099;28;51045;-64
2021/11/13 10:16:29;;;;;;;;;6.67;5.33;;;;;-147.17;100.00;49725.94;5052728;28;51060;-64
2021/11/13 10:19:12;;;;;;;;;4.33;4.33;;;;;-147.17;100.00;49753.50;5052864;28;50935;-64
2021/11/13 10:22:02;;;;;;;;;5.67;5.67;;;;;-147.17;100.00;49745.63;5052490;28;51847;-63
2021/11/13 10:24:28;;;;;;;;;6.33;6.33;;;;;-147.17;100.00;49731.84;5053112;28;50932;-66
2021/11/13 10:26:59;;;;;;;;;6.33;5.00;;;;;-147.17;100.00;49749.56;5053785;28;51267;-65
2021/11/13 10:29:29;;;;;;;;;6.33;6.33;;;;;-147.17;100.00;49737.75;5050099;28;51391;-63
2021/11/13 10:31:57;;;;;;;;;7.00;6.00;;;;;-147.17;100.00;49710.19;5030973;28;54000;-63
2021/11/13 10:34:24;;;;;;;;;8.00;7.00;;;;;-147.17;100.00;49729.88;5036018;28;51011;-62
2021/11/13 10:36:59;;;;;;;;;7.00;7.00;;;;;-147.17;100.00;49716.09;5052730;28;50900;-62
2021/11/13 10:39:39;;;;;;;;;8.00;6.33;;;;;-147.17;100.00;49720.03;5047095;28;50943;-63
2021/11/13 10:42:11;;;;;;;;;7.00;6.00;;;;;-147.17;100.00;49731.84;5036729;28;54244;-63
2021/11/13 10:44:41;;;;;;;;;7.67;7.00;;;;;-147.17;100.00;49710.19;5051439;28;51029;-63
2021/11/13 10:47:09;;;;;;;;;9.00;7.00;;;;;-147.17;100.00;49714.13;5037328;28;51071;-63
2021/11/13 10:49:35;;;;;;;;;8.00;7.33;;;;;-147.17;100.00;49686.56;5032454;28;50955;-62
2021/11/13 10:52:04;;;;;;;;;6.00;5.00;;;;;-147.17;100.00;49727.91;5030858;28;52199;-63
2021/11/13 10:54:30;;;;;;;;;6.00;6.00;;;;;-147.17;100.00;49710.19;5036625;28;51136;-64
2021/11/13 10:56:57;;;;;;;;;6.33;5.67;;;;;-147.17;100.00;49716.09;5037693;28;51026;-63
2021/11/13 10:59:28;;;;;;;;;5.33;5.33;;;;;-147.17;100.00;49694.44;5031735;28;51340;-62
2021/11/13 11:01:58;;;;;;;;;6.00;6.00;;;;;-147.17;100.00;49733.81;5030476;28;54226;-63
2021/11/13 11:04:29;;;;;;;;;6.67;6.00;;;;;-147.17;100.00;49729.88;5035317;28;50886;-62